createdAt,value
2024-02-02T00:00:48.217Z,26.87
2024-02-02T00:01:51.386Z,30.75
2024-02-02T00:02:54.377Z,30.19
2024-02-02T00:03:57.463Z,32.00
2024-02-02T00:05:00.569Z,26.60
2024-02-02T00:06:03.541Z,29.00
2024-02-02T00:07:06.567Z,31.56
2024-02-02T00:08:09.610Z,30.69
2024-02-02T00:09:12.525Z,7.56
2024-02-02T00:10:15.695Z,31.37
2024-02-02T00:11:18.638Z,30.44
2024-02-02T00:12:21.641Z,30.60
2024-02-02T00:13:24.953Z,30.20
2024-02-02T00:14:27.845Z,31.25
2024-02-02T00:15:30.847Z,30.07
2024-02-02T00:16:33.928Z,30.80
2024-02-02T00:17:36.917Z,30.40
2024-02-02T00:18:40.139Z,29.19
2024-02-02T00:19:43.134Z,30.62
2024-02-02T00:20:46.130Z,28.25
2024-02-02T00:21:49.052Z,31.06
2024-02-02T00:22:53.992Z,30.44
2024-02-02T00:23:56.374Z,30.44
2024-02-02T00:24:59.259Z,30.56
2024-02-02T00:26:02.233Z,25.62
2024-02-02T00:27:05.700Z,30.37
2024-02-02T00:28:08.679Z,29.19
2024-02-02T00:29:11.536Z,28.12
2024-02-02T00:30:14.857Z,30.06
2024-02-02T00:31:17.920Z,26.00
2024-02-02T00:32:20.824Z,26.81
2024-02-02T00:33:23.847Z,26.87
2024-02-02T00:34:27.193Z,25.94
2024-02-02T00:35:30.225Z,22.75
2024-02-02T00:36:33.314Z,29.31
2024-02-02T00:37:36.208Z,22.87
2024-02-02T00:38:39.078Z,28.87
2024-02-02T00:39:41.966Z,22.81
2024-02-02T00:40:44.878Z,25.00
2024-02-02T00:41:47.829Z,28.25
2024-02-02T00:42:50.753Z,28.94
2024-02-02T00:43:53.664Z,26.37
2024-02-02T00:44:56.622Z,27.19
2024-02-02T00:45:59.525Z,23.94
2024-02-02T00:47:02.412Z,15.69
2024-02-02T00:48:07.810Z,22.25
2024-02-02T00:49:10.002Z,24.25
2024-02-02T00:50:13.743Z,24.13
2024-02-02T00:51:16.687Z,23.06
2024-02-02T00:52:19.600Z,26.27
2024-02-02T00:53:22.534Z,27.47
2024-02-02T00:54:25.433Z,24.67
2024-02-02T00:55:29.619Z,3.33
2024-02-02T00:56:32.621Z,24.12
2024-02-02T00:57:35.591Z,22.31
2024-02-02T00:58:38.440Z,21.87
2024-02-02T00:59:41.313Z,23.12
2024-02-02T01:00:44.298Z,21.62
2024-02-02T01:01:47.278Z,23.56
2024-02-02T01:02:50.256Z,24.00
2024-02-02T01:03:53.267Z,20.50
2024-02-02T01:04:56.227Z,26.50
2024-02-02T01:05:59.217Z,21.31
2024-02-02T01:07:02.286Z,21.06
2024-02-02T01:08:05.396Z,23.94
2024-02-02T01:09:08.346Z,19.69
2024-02-02T01:10:11.313Z,25.37
2024-02-02T01:11:14.247Z,22.53
2024-02-02T01:12:17.181Z,23.13
2024-02-02T01:13:20.163Z,22.69
2024-02-02T01:14:23.062Z,24.73
2024-02-02T01:15:26.152Z,23.38
2024-02-02T01:16:30.329Z,22.19
2024-02-02T01:17:33.574Z,20.00
2024-02-02T01:18:36.597Z,23.50
2024-02-02T01:19:39.584Z,22.00
2024-02-02T01:20:42.606Z,22.13
2024-02-02T01:21:45.503Z,27.31
2024-02-02T01:22:48.397Z,24.19
2024-02-02T01:23:51.337Z,22.37
2024-02-02T01:24:54.168Z,23.06
2024-02-02T01:25:57.070Z,25.81
2024-02-02T01:27:00.068Z,23.00
2024-02-02T01:28:03.108Z,22.94
2024-02-02T01:29:06.402Z,25.19
2024-02-02T01:30:10.010Z,26.31
2024-02-02T01:31:12.848Z,23.25
2024-02-02T01:32:15.792Z,22.69
2024-02-02T01:33:18.793Z,23.38
2024-02-02T01:34:21.910Z,24.20
2024-02-02T01:35:25.027Z,20.56
2024-02-02T01:36:28.102Z,20.31
2024-02-02T01:37:31.087Z,24.93
2024-02-02T01:38:34.046Z,22.13
2024-02-02T01:39:36.978Z,20.53
2024-02-02T01:40:40.037Z,21.69
2024-02-02T01:41:42.895Z,22.62
2024-02-02T01:42:45.741Z,22.80
2024-02-02T01:43:48.651Z,22.37
2024-02-02T01:44:51.565Z,23.12
2024-02-02T01:45:54.487Z,19.94
2024-02-02T01:46:57.467Z,18.75
2024-02-02T01:48:00.514Z,17.56
2024-02-02T01:49:03.770Z,20.69
2024-02-02T01:50:07.371Z,22.13
2024-02-02T01:51:10.260Z,18.94
2024-02-02T01:52:13.240Z,21.37
2024-02-02T01:53:16.293Z,18.06
2024-02-02T01:54:19.633Z,18.37
2024-02-02T01:55:24.303Z,18.19
2024-02-02T01:56:27.319Z,15.38
2024-02-02T01:57:30.203Z,18.19
2024-02-02T01:58:33.152Z,18.50
2024-02-02T01:59:36.121Z,15.00
2024-02-02T02:00:39.252Z,15.69
2024-02-02T02:01:42.462Z,14.87
2024-02-02T02:02:45.323Z,16.00
2024-02-02T02:03:48.270Z,19.44
2024-02-02T02:04:51.208Z,18.44
2024-02-02T02:05:54.598Z,20.56
2024-02-02T02:06:57.632Z,17.69
2024-02-02T02:08:01.240Z,11.53
2024-02-02T02:09:04.818Z,19.12
2024-02-02T02:10:08.324Z,20.94
2024-02-02T02:11:11.306Z,17.00
2024-02-02T02:12:14.215Z,20.00
2024-02-02T02:13:17.254Z,20.00
2024-02-02T02:14:20.341Z,18.62
2024-02-02T02:15:23.289Z,16.31
2024-02-02T02:16:26.290Z,15.81
2024-02-02T02:17:29.204Z,17.00
2024-02-02T02:18:32.178Z,16.94
2024-02-02T02:19:35.258Z,16.31
2024-02-02T02:20:38.356Z,20.69
2024-02-02T02:21:41.232Z,20.12
2024-02-02T02:22:44.103Z,17.37
2024-02-02T02:23:47.005Z,16.31
2024-02-02T02:24:49.972Z,18.69
2024-02-02T02:25:52.859Z,16.81
2024-02-02T02:26:55.806Z,18.75
2024-02-02T02:27:58.712Z,16.75
2024-02-02T02:29:01.731Z,16.81
2024-02-02T02:30:04.932Z,17.06
2024-02-02T02:31:09.242Z,18.12
2024-02-02T02:32:12.161Z,18.62
2024-02-02T02:33:15.275Z,18.00
2024-02-02T02:34:18.574Z,12.44
2024-02-02T02:35:21.574Z,18.73
2024-02-02T02:36:24.530Z,15.00
2024-02-02T02:37:27.479Z,19.31
2024-02-02T02:38:30.373Z,17.25
2024-02-02T02:39:33.406Z,15.13
2024-02-02T02:40:36.435Z,18.87
2024-02-02T02:41:39.291Z,15.13
2024-02-02T02:42:42.173Z,18.62
2024-02-02T02:43:45.069Z,18.25
2024-02-02T02:44:47.973Z,16.87
2024-02-02T02:45:50.856Z,15.13
2024-02-02T02:46:54.129Z,17.12
2024-02-02T02:47:57.105Z,15.19
2024-02-02T02:49:00.132Z,15.88
2024-02-02T02:50:03.240Z,16.56
2024-02-02T02:51:06.262Z,17.81
2024-02-02T02:52:09.293Z,15.60
2024-02-02T02:53:12.190Z,17.37
2024-02-02T02:54:15.395Z,13.81
2024-02-02T02:55:20.076Z,16.00
2024-02-02T02:56:23.216Z,14.87
2024-02-02T02:57:26.180Z,15.44
2024-02-02T02:58:29.139Z,14.50
2024-02-02T02:59:32.120Z,14.06
2024-02-02T03:00:35.169Z,16.25
2024-02-02T03:01:38.336Z,17.87
2024-02-02T03:02:41.198Z,14.50
2024-02-02T03:03:44.145Z,13.88
2024-02-02T03:04:47.100Z,14.25
2024-02-02T03:05:50.082Z,14.63
2024-02-02T03:06:53.181Z,12.88
2024-02-02T03:07:56.186Z,14.06
2024-02-02T03:08:59.113Z,14.06
2024-02-02T03:10:02.030Z,17.06
2024-02-02T03:11:05.051Z,14.19
2024-02-02T03:12:08.057Z,14.81
2024-02-02T03:13:11.105Z,15.75
2024-02-02T03:14:14.765Z,18.37
2024-02-02T03:15:17.697Z,15.06
2024-02-02T03:16:20.731Z,15.63
2024-02-02T03:17:23.671Z,15.69
2024-02-02T03:18:26.708Z,15.38
2024-02-02T03:19:29.898Z,15.56
2024-02-02T03:20:32.943Z,10.25
2024-02-02T03:21:35.937Z,16.19
2024-02-02T03:22:39.031Z,17.87
2024-02-02T03:23:41.940Z,18.50
2024-02-02T03:24:44.820Z,18.75
2024-02-02T03:25:47.728Z,16.69
2024-02-02T03:26:50.720Z,18.94
2024-02-02T03:27:53.595Z,19.12
2024-02-02T03:28:56.492Z,17.94
2024-02-02T03:29:59.507Z,18.37
2024-02-02T03:31:02.436Z,21.44
2024-02-02T03:32:06.926Z,18.69
2024-02-02T03:33:10.106Z,17.44
2024-02-02T03:34:13.361Z,17.25
2024-02-02T03:35:16.373Z,18.12
2024-02-02T03:36:19.449Z,20.19
2024-02-02T03:37:22.493Z,14.75
2024-02-02T03:38:25.436Z,18.07
2024-02-02T03:39:28.363Z,12.37
2024-02-02T03:40:31.399Z,19.50
2024-02-02T03:41:34.262Z,17.62
2024-02-02T03:42:37.232Z,19.06
2024-02-02T03:43:40.465Z,17.25
2024-02-02T03:44:43.362Z,14.94
2024-02-02T03:45:46.644Z,15.50
2024-02-02T03:46:49.610Z,14.31
2024-02-02T03:47:52.913Z,15.75
2024-02-02T03:48:56.128Z,15.94
2024-02-02T03:49:59.385Z,18.44
2024-02-02T03:51:02.427Z,16.06
2024-02-02T03:52:05.597Z,17.31
2024-02-02T03:53:08.501Z,14.56
2024-02-02T03:54:12.826Z,17.60
2024-02-02T03:55:15.797Z,15.38
2024-02-02T03:56:18.826Z,16.44
2024-02-02T03:57:23.692Z,15.38
2024-02-02T03:58:26.596Z,15.63
2024-02-02T03:59:31.181Z,13.19
2024-02-02T04:00:34.402Z,13.81
2024-02-02T04:01:37.600Z,15.19
2024-02-02T04:02:40.545Z,14.75
2024-02-02T04:03:43.541Z,12.07
2024-02-02T04:04:46.529Z,14.00
2024-02-02T04:05:49.486Z,15.75
2024-02-02T04:06:52.433Z,11.94
2024-02-02T04:07:55.348Z,13.56
2024-02-02T04:08:58.252Z,13.81
2024-02-02T04:10:01.286Z,11.19
2024-02-02T04:11:04.155Z,12.63
2024-02-02T04:12:07.414Z,12.07
2024-02-02T04:13:10.338Z,12.37
2024-02-02T04:14:13.307Z,12.50
2024-02-02T04:15:16.245Z,11.31
2024-02-02T04:16:19.263Z,13.20
2024-02-02T04:17:22.147Z,11.94
2024-02-02T04:18:25.211Z,14.13
2024-02-02T04:19:28.504Z,12.31
2024-02-02T04:20:31.551Z,14.20
2024-02-02T04:21:34.481Z,12.50
2024-02-02T04:22:37.450Z,13.38
2024-02-02T04:23:40.413Z,14.40
2024-02-02T04:24:43.308Z,14.06
2024-02-02T04:25:46.242Z,12.25
2024-02-02T04:26:49.234Z,13.44
2024-02-02T04:27:52.112Z,14.19
2024-02-02T04:28:55.000Z,15.63
2024-02-02T04:29:57.875Z,15.00
2024-02-02T04:31:00.838Z,13.88
2024-02-02T04:32:03.812Z,14.00
2024-02-02T04:33:07.832Z,12.50
2024-02-02T04:34:11.031Z,12.06
2024-02-02T04:35:13.963Z,13.56
2024-02-02T04:36:17.475Z,12.37
2024-02-02T04:37:20.397Z,12.00
2024-02-02T04:38:23.249Z,12.31
2024-02-02T04:39:26.283Z,13.69
2024-02-02T04:40:29.369Z,10.56
2024-02-02T04:41:32.259Z,13.25
2024-02-02T04:42:35.280Z,15.06
2024-02-02T04:43:38.172Z,18.19
2024-02-02T04:44:41.035Z,14.13
2024-02-02T04:45:43.911Z,10.56
2024-02-02T04:46:48.618Z,11.25
2024-02-02T04:47:51.645Z,11.56
2024-02-02T04:48:54.997Z,8.75
2024-02-02T04:49:58.060Z,9.00
2024-02-02T04:51:01.156Z,13.13
2024-02-02T04:52:04.859Z,11.63
2024-02-02T04:53:07.738Z,10.63
2024-02-02T04:54:10.763Z,11.67
2024-02-02T04:55:13.721Z,9.69
2024-02-02T04:56:16.704Z,13.13
2024-02-02T04:57:19.636Z,10.75
2024-02-02T04:58:22.559Z,9.88
2024-02-02T04:59:25.790Z,12.63
2024-02-02T05:00:28.840Z,10.56
2024-02-02T05:01:33.557Z,10.31
2024-02-02T05:02:36.426Z,11.06
2024-02-02T05:03:39.638Z,11.00
2024-02-02T05:04:42.608Z,10.63
2024-02-02T05:05:45.524Z,10.44
2024-02-02T05:06:48.596Z,10.50
2024-02-02T05:07:51.499Z,10.06
2024-02-02T05:08:54.353Z,7.19
2024-02-02T05:09:57.198Z,11.19
2024-02-02T05:11:00.142Z,9.13
2024-02-02T05:12:03.053Z,10.13
2024-02-02T05:13:05.883Z,10.63
2024-02-02T05:14:08.772Z,16.56
2024-02-02T05:15:11.809Z,9.94
2024-02-02T05:16:15.900Z,9.44
2024-02-02T05:17:19.290Z,11.75
2024-02-02T05:18:22.365Z,11.31
2024-02-02T05:19:25.402Z,6.50
2024-02-02T05:20:28.491Z,9.56
2024-02-02T05:21:31.381Z,8.19
2024-02-02T05:22:34.284Z,8.56
2024-02-02T05:23:43.195Z,5.94
2024-02-02T05:24:45.465Z,8.38
2024-02-02T05:25:46.528Z,10.75
2024-02-02T05:26:51.668Z,9.50
2024-02-02T05:27:54.578Z,9.50
2024-02-02T05:28:57.666Z,8.31
2024-02-02T05:30:00.889Z,7.93
2024-02-02T05:31:03.941Z,8.75
2024-02-02T05:32:06.896Z,11.69
2024-02-02T05:33:09.928Z,6.81
2024-02-02T05:34:13.172Z,7.37
2024-02-02T05:35:16.394Z,6.19
2024-02-02T05:36:19.395Z,6.94
2024-02-02T05:37:22.353Z,8.13
2024-02-02T05:38:25.219Z,6.50
2024-02-02T05:39:28.134Z,5.87
2024-02-02T05:40:32.971Z,7.00
2024-02-02T05:41:35.731Z,5.06
2024-02-02T05:42:38.717Z,7.00
2024-02-02T05:43:42.096Z,6.37
2024-02-02T05:44:45.127Z,6.87
2024-02-02T05:45:48.095Z,4.00
2024-02-02T05:46:50.999Z,5.94
2024-02-02T05:47:53.972Z,4.62
2024-02-02T05:48:57.285Z,5.31
2024-02-02T05:50:00.502Z,7.00
2024-02-02T05:51:03.549Z,4.50
2024-02-02T05:52:06.644Z,6.37
2024-02-02T05:53:09.666Z,6.87
2024-02-02T05:54:12.537Z,6.00
2024-02-02T05:55:15.486Z,6.12
2024-02-02T05:56:19.211Z,6.44
2024-02-02T05:57:26.501Z,6.37
2024-02-02T05:58:31.150Z,5.69
2024-02-02T05:59:34.018Z,4.37
2024-02-02T06:00:37.235Z,4.50
2024-02-02T06:01:40.304Z,5.25
2024-02-02T06:02:43.311Z,5.25
2024-02-02T06:03:49.069Z,6.37
2024-02-02T06:04:50.854Z,7.37
2024-02-02T06:05:53.745Z,12.88
2024-02-02T06:06:57.044Z,8.31
2024-02-02T06:08:15.014Z,10.31
2024-02-02T06:09:18.526Z,11.38
2024-02-02T06:10:21.667Z,8.56
2024-02-02T06:11:24.736Z,9.50
2024-02-02T06:12:27.773Z,9.93
2024-02-02T06:13:30.985Z,8.56
2024-02-02T06:14:33.926Z,5.12
2024-02-02T06:15:36.846Z,7.81
2024-02-02T06:16:39.879Z,7.44
2024-02-02T06:17:42.763Z,6.69
2024-02-02T06:18:45.746Z,6.37
2024-02-02T06:19:48.859Z,4.50
2024-02-02T06:20:51.937Z,3.12
2024-02-02T06:21:54.988Z,5.25
2024-02-02T06:22:58.167Z,5.37
2024-02-02T06:24:01.499Z,4.87
2024-02-02T06:25:04.668Z,6.87
2024-02-02T06:26:07.737Z,6.12
2024-02-02T06:27:10.743Z,5.00
2024-02-02T06:28:13.657Z,6.00
2024-02-02T06:29:16.527Z,5.12
2024-02-02T06:30:19.547Z,5.44
2024-02-02T06:31:22.479Z,3.81
2024-02-02T06:32:25.570Z,4.56
2024-02-02T06:33:28.686Z,2.37
2024-02-02T06:34:31.811Z,3.81
2024-02-02T06:35:34.930Z,6.50
2024-02-02T06:36:37.945Z,3.69
2024-02-02T06:37:40.867Z,5.12
2024-02-02T06:38:43.747Z,3.00
2024-02-02T06:39:46.637Z,3.31
2024-02-02T06:40:49.647Z,3.56
2024-02-02T06:41:52.580Z,4.12
2024-02-02T06:42:55.552Z,3.75
2024-02-02T06:44:00.243Z,4.19
2024-02-02T06:45:05.276Z,3.87
2024-02-02T06:46:11.487Z,4.00
2024-02-02T06:47:14.423Z,5.06
2024-02-02T06:48:17.473Z,6.81
2024-02-02T06:49:20.533Z,5.75
2024-02-02T06:50:23.639Z,4.44
2024-02-02T06:51:26.584Z,4.69
2024-02-02T06:52:29.524Z,6.25
2024-02-02T06:53:32.484Z,7.12
2024-02-02T06:54:35.520Z,6.19
2024-02-02T06:55:38.633Z,5.44
2024-02-02T06:56:42.794Z,6.62
2024-02-02T06:57:47.074Z,5.81
2024-02-02T06:58:50.377Z,5.06
2024-02-02T06:59:53.374Z,6.37
2024-02-02T07:00:56.616Z,7.44
2024-02-02T07:02:00.466Z,5.12
2024-02-02T07:03:06.265Z,5.69
2024-02-02T07:04:13.501Z,6.62
2024-02-02T07:05:16.468Z,3.81
2024-02-02T07:06:23.431Z,7.37
2024-02-02T07:07:27.748Z,5.31
2024-02-02T07:08:33.694Z,28.31
2024-02-02T07:09:37.024Z,9.06
2024-02-02T07:10:40.391Z,7.25
2024-02-02T07:11:50.691Z,6.12
2024-02-02T07:13:00.030Z,5.81
2024-02-02T07:14:04.445Z,4.81
2024-02-02T07:15:10.540Z,4.87
2024-02-02T07:16:21.487Z,6.56
2024-02-02T07:17:38.069Z,8.56
2024-02-02T07:18:41.141Z,9.13
2024-02-02T07:19:44.179Z,10.88
2024-02-02T07:20:48.611Z,10.06
2024-02-02T07:21:51.465Z,8.06
2024-02-02T07:22:58.234Z,6.62
2024-02-02T07:24:01.105Z,7.75
2024-02-02T07:25:05.527Z,5.00
2024-02-02T07:26:10.500Z,7.44
2024-02-02T07:27:21.038Z,4.25
2024-02-02T07:28:28.348Z,2.87
2024-02-02T07:29:32.692Z,5.12
2024-02-02T07:30:45.975Z,3.87
2024-02-02T07:31:49.024Z,4.94
2024-02-02T07:32:51.972Z,2.06
2024-02-02T07:33:55.151Z,3.81
2024-02-02T07:34:59.304Z,4.56
2024-02-02T07:36:02.665Z,6.56
2024-02-02T07:37:07.005Z,6.94
2024-02-02T07:38:11.328Z,5.00
2024-02-02T07:39:17.409Z,6.12
2024-02-02T07:40:33.733Z,4.69
2024-02-02T07:41:36.688Z,1.75
2024-02-02T07:42:47.864Z,3.87
2024-02-02T07:43:44.505Z,4.19
2024-02-02T07:44:47.452Z,4.69
2024-02-02T07:45:50.352Z,3.37
2024-02-02T07:46:53.776Z,3.25
2024-02-02T07:47:56.790Z,4.87
2024-02-02T07:49:00.300Z,4.62
2024-02-02T07:50:03.526Z,3.37
2024-02-02T07:51:06.446Z,4.62
2024-02-02T07:52:09.361Z,4.69
2024-02-02T07:53:12.249Z,4.69
2024-02-02T07:54:15.154Z,4.19
2024-02-02T07:55:18.046Z,5.37
2024-02-02T07:56:21.051Z,5.50
2024-02-02T07:57:23.999Z,5.31
2024-02-02T07:58:26.987Z,5.62
2024-02-02T07:59:29.877Z,4.25
2024-02-02T08:00:32.970Z,4.56
2024-02-02T08:01:35.930Z,3.69
2024-02-02T08:02:38.890Z,3.75
2024-02-02T08:03:42.026Z,0.62
2024-02-02T08:04:44.953Z,3.56
2024-02-02T08:05:47.968Z,1.31
2024-02-02T08:06:50.990Z,4.06
2024-02-02T08:07:54.152Z,5.81
2024-02-02T08:08:57.098Z,5.50
2024-02-02T08:10:00.047Z,4.75
2024-02-02T08:11:02.959Z,5.12
2024-02-02T08:12:06.090Z,5.50
2024-02-02T08:13:10.487Z,4.12
2024-02-02T08:14:13.410Z,1.75
2024-02-02T08:15:16.395Z,2.06
2024-02-02T08:16:19.431Z,4.12
2024-02-02T08:17:22.310Z,4.00
2024-02-02T08:18:25.251Z,5.50
2024-02-02T08:19:28.507Z,3.87
2024-02-02T08:20:31.483Z,3.19
2024-02-02T08:21:34.436Z,3.94
2024-02-02T08:22:37.390Z,4.44
2024-02-02T08:23:40.273Z,3.06
2024-02-02T08:24:43.162Z,2.31
2024-02-02T08:25:46.022Z,5.75
2024-02-02T08:26:48.996Z,4.00
2024-02-02T08:27:51.855Z,3.87
2024-02-02T08:28:55.438Z,4.00
2024-02-02T08:29:58.674Z,4.37
2024-02-02T08:31:01.692Z,5.19
2024-02-02T08:32:04.959Z,4.06
2024-02-02T08:33:07.913Z,3.19
2024-02-02T08:34:12.496Z,5.44
2024-02-02T08:35:15.851Z,3.06
2024-02-02T08:36:18.905Z,3.62
2024-02-02T08:37:21.907Z,3.69
2024-02-02T08:38:24.765Z,5.69
2024-02-02T08:39:29.156Z,4.50
2024-02-02T08:40:33.585Z,5.25
2024-02-02T08:41:39.212Z,3.75
2024-02-02T08:42:42.708Z,3.75
2024-02-02T08:43:45.697Z,3.62
2024-02-02T08:44:49.046Z,3.75
2024-02-02T08:45:59.524Z,3.06
2024-02-02T08:47:02.520Z,4.31
2024-02-02T08:48:06.872Z,3.75
2024-02-02T08:49:11.289Z,2.69
2024-02-02T08:50:15.432Z,2.12
2024-02-02T08:51:25.839Z,1.87
2024-02-02T08:52:32.539Z,1.12
2024-02-02T08:53:35.412Z,3.56
2024-02-02T08:54:39.233Z,2.87
2024-02-02T08:55:45.779Z,2.06
2024-02-02T08:57:06.871Z,2.87
2024-02-02T08:58:10.473Z,3.75
2024-02-02T08:59:20.674Z,3.81
2024-02-02T09:00:25.145Z,5.00
2024-02-02T09:01:38.259Z,3.94
2024-02-02T09:03:00.254Z,3.75
2024-02-02T09:04:02.700Z,2.81
2024-02-02T09:05:11.030Z,3.12
2024-02-02T09:06:21.108Z,2.56
2024-02-02T09:07:24.264Z,2.56
2024-02-02T09:08:28.691Z,3.75
2024-02-02T09:09:31.596Z,3.50
2024-02-02T09:10:36.083Z,4.44
2024-02-02T09:11:39.022Z,3.69
2024-02-02T09:12:43.380Z,6.69
2024-02-02T09:13:46.710Z,2.87
2024-02-02T09:14:49.574Z,2.62
2024-02-02T09:15:52.554Z,1.37
2024-02-02T09:16:56.693Z,3.00
2024-02-02T09:17:59.628Z,0.94
2024-02-02T09:19:02.609Z,3.37
2024-02-02T09:20:07.299Z,5.19
2024-02-02T09:21:10.295Z,2.44
2024-02-02T09:22:14.648Z,3.69
2024-02-02T09:23:18.031Z,0.00
2024-02-02T09:24:22.414Z,2.75
2024-02-02T09:25:30.042Z,2.12
2024-02-02T09:26:39.955Z,3.62
2024-02-02T09:27:42.915Z,9.56
2024-02-02T09:28:46.242Z,3.12
2024-02-02T09:29:50.663Z,3.75
2024-02-02T09:30:58.130Z,2.75
2024-02-02T09:32:01.666Z,2.44
2024-02-02T09:33:05.022Z,3.44
2024-02-02T09:34:10.245Z,4.62
2024-02-02T09:35:30.047Z,3.06
2024-02-02T09:36:33.101Z,2.25
2024-02-02T09:37:37.619Z,1.50
2024-02-02T09:38:40.599Z,1.81
2024-02-02T09:39:50.834Z,3.25
2024-02-02T09:40:57.907Z,1.12
2024-02-02T09:42:02.596Z,3.56
2024-02-02T09:43:09.376Z,2.37
2024-02-02T09:44:13.695Z,3.56
2024-02-02T09:45:18.069Z,2.00
2024-02-02T09:46:28.267Z,4.06
2024-02-02T09:47:41.545Z,4.06
2024-02-02T09:48:57.964Z,4.37
2024-02-02T09:50:21.222Z,3.00
2024-02-02T09:51:42.103Z,3.87
2024-02-02T09:52:49.276Z,6.12
2024-02-02T09:53:56.654Z,2.37
2024-02-02T09:55:04.033Z,4.19
2024-02-02T09:56:12.316Z,5.69
2024-02-02T09:57:22.349Z,4.75
2024-02-02T09:58:26.631Z,7.31
2024-02-02T09:59:47.394Z,5.44
2024-02-02T10:00:51.880Z,4.62
2024-02-02T10:02:08.376Z,7.19
2024-02-02T10:03:12.767Z,7.94
2024-02-02T10:04:33.617Z,10.31
2024-02-02T10:05:37.966Z,3.69
2024-02-02T10:06:42.477Z,6.50
2024-02-02T10:07:54.151Z,7.31
2024-02-02T10:09:01.481Z,3.19
2024-02-02T10:10:24.132Z,4.75
2024-02-02T10:11:44.838Z,2.31
2024-02-02T10:13:03.990Z,2.50
2024-02-02T10:14:26.659Z,1.87
2024-02-02T10:15:49.253Z,1.81
2024-02-02T10:16:56.769Z,4.00
2024-02-02T10:18:16.706Z,2.50
2024-02-02T10:19:30.519Z,3.50
2024-02-02T10:20:41.043Z,4.50
2024-02-02T10:21:45.386Z,3.37
2024-02-02T10:22:52.407Z,3.50
2024-02-02T10:23:58.545Z,3.75
2024-02-02T10:25:02.792Z,3.12
2024-02-02T10:26:20.036Z,3.25
2024-02-02T10:27:24.468Z,1.37
2024-02-02T10:28:28.844Z,2.31
2024-02-02T10:29:34.720Z,3.62
2024-02-02T10:30:46.885Z,3.37
2024-02-02T10:31:51.439Z,1.62
2024-02-02T10:33:12.631Z,2.69
2024-02-02T10:34:23.355Z,0.69
2024-02-02T10:35:28.072Z,1.56
2024-02-02T10:36:41.624Z,3.50
2024-02-02T10:37:45.912Z,1.94
2024-02-02T10:38:50.420Z,2.06
2024-02-02T10:40:07.189Z,0.06
2024-02-02T10:41:17.644Z,1.75
2024-02-02T10:42:27.900Z,2.69
2024-02-02T10:43:35.219Z,1.87
2024-02-02T10:44:42.773Z,2.56
2024-02-02T10:45:56.347Z,1.50
2024-02-02T10:47:01.016Z,1.87
2024-02-02T10:48:07.201Z,1.37
2024-02-02T10:49:20.989Z,1.25
2024-02-02T10:50:30.625Z,1.87
2024-02-02T10:51:41.237Z,0.69
2024-02-02T10:52:45.884Z,2.06
2024-02-02T10:53:52.540Z,1.75
2024-02-02T10:54:59.744Z,1.87
2024-02-02T10:56:13.415Z,2.25
2024-02-02T10:57:20.534Z,2.25
2024-02-02T10:58:25.019Z,2.25
2024-02-02T10:59:29.460Z,1.62
2024-02-02T11:00:33.959Z,2.81
2024-02-02T11:01:41.511Z,2.19
2024-02-02T11:02:45.886Z,3.94
2024-02-02T11:03:53.823Z,1.37
2024-02-02T11:05:07.163Z,2.50
2024-02-02T11:06:11.937Z,3.31
2024-02-02T11:07:16.619Z,0.13
2024-02-02T11:08:22.947Z,3.25
2024-02-02T11:09:36.185Z,2.50
2024-02-02T11:10:40.794Z,2.87
2024-02-02T11:11:45.177Z,1.81
2024-02-02T11:13:01.295Z,2.81
2024-02-02T11:14:05.606Z,2.69
2024-02-02T11:15:18.862Z,1.25
2024-02-02T11:16:26.341Z,2.50
2024-02-02T11:17:36.485Z,0.81
2024-02-02T11:18:57.245Z,2.19
2024-02-02T11:20:07.711Z,3.12
2024-02-02T11:21:20.839Z,2.37
2024-02-02T11:22:33.850Z,1.37
2024-02-02T11:23:54.479Z,1.37
2024-02-02T11:25:04.928Z,2.25
2024-02-02T11:26:09.578Z,2.62
2024-02-02T11:27:14.008Z,2.75
2024-02-02T11:28:27.108Z,2.62
2024-02-02T11:29:49.352Z,2.31
2024-02-02T11:30:59.803Z,3.62
2024-02-02T11:32:04.175Z,3.50
2024-02-02T11:33:11.304Z,1.81
2024-02-02T11:34:24.171Z,3.94
2024-02-02T11:35:45.152Z,3.56
2024-02-02T11:37:01.674Z,1.44
2024-02-02T11:38:11.909Z,3.56
2024-02-02T11:39:16.289Z,3.19
2024-02-02T11:40:21.017Z,4.50
2024-02-02T11:41:25.413Z,7.75
2024-02-02T11:42:29.195Z,4.75
2024-02-02T11:43:32.246Z,4.00
2024-02-02T11:44:35.689Z,4.37
2024-02-02T11:45:40.318Z,3.19
2024-02-02T11:46:43.656Z,6.50
2024-02-02T11:47:50.987Z,3.75
2024-02-02T11:48:55.566Z,4.37
2024-02-02T11:50:00.142Z,3.31
2024-02-02T11:51:03.324Z,1.31
2024-02-02T11:52:08.012Z,3.44
2024-02-02T11:53:21.026Z,3.56
2024-02-02T11:54:25.365Z,5.06
2024-02-02T11:55:32.943Z,4.44
2024-02-02T11:56:40.334Z,5.31
2024-02-02T11:57:44.650Z,3.75
2024-02-02T11:58:49.118Z,3.31
2024-02-02T11:59:54.713Z,3.37
2024-02-02T12:01:15.593Z,2.62
2024-02-02T12:02:19.917Z,3.12
2024-02-02T12:03:40.720Z,4.81
2024-02-02T12:04:45.522Z,4.94
2024-02-02T12:05:50.368Z,4.56
2024-02-02T12:06:57.718Z,5.62
2024-02-02T12:08:05.052Z,4.94
2024-02-02T12:09:15.155Z,9.38
2024-02-02T12:10:19.822Z,5.56
2024-02-02T12:11:29.609Z,6.87
2024-02-02T12:12:32.960Z,9.00
2024-02-02T12:13:37.313Z,5.56
2024-02-02T12:14:41.607Z,4.31
2024-02-02T12:15:44.532Z,5.56
2024-02-02T12:16:47.563Z,3.75
2024-02-02T12:17:50.594Z,5.12
2024-02-02T12:18:53.674Z,1.00
2024-02-02T12:19:56.752Z,5.62
2024-02-02T12:20:59.807Z,6.25
2024-02-02T12:22:02.651Z,4.75
2024-02-02T12:23:05.596Z,6.00
2024-02-02T12:24:08.495Z,3.81
2024-02-02T12:25:11.955Z,5.62
2024-02-02T12:26:16.108Z,4.56
2024-02-02T12:27:19.028Z,4.56
2024-02-02T12:28:21.939Z,4.06
2024-02-02T12:29:25.713Z,6.31
2024-02-02T12:30:28.698Z,1.81
2024-02-02T12:31:31.527Z,2.31
2024-02-02T12:32:34.385Z,4.75
2024-02-02T12:33:37.351Z,2.19
2024-02-02T12:34:40.528Z,3.87
2024-02-02T12:35:43.535Z,2.12
2024-02-02T12:36:46.525Z,3.31
2024-02-02T12:37:49.681Z,4.31
2024-02-02T12:38:52.533Z,4.12
2024-02-02T12:39:55.396Z,3.50
2024-02-02T12:40:58.328Z,4.50
2024-02-02T12:42:01.632Z,3.25
2024-02-02T12:43:04.669Z,4.12
2024-02-02T12:44:07.742Z,3.69
2024-02-02T12:45:13.518Z,3.12
2024-02-02T12:46:16.497Z,3.06
2024-02-02T12:47:25.498Z,3.19
2024-02-02T12:48:28.465Z,3.25
2024-02-02T12:49:31.614Z,5.69
2024-02-02T12:50:34.597Z,9.13
2024-02-02T12:51:37.538Z,3.56
2024-02-02T12:52:40.501Z,2.69
2024-02-02T12:53:43.463Z,5.25
2024-02-02T12:54:46.307Z,0.37
2024-02-02T12:55:49.178Z,3.31
2024-02-02T12:56:52.192Z,4.06
2024-02-02T12:57:55.011Z,2.25
2024-02-02T12:58:57.908Z,3.56
2024-02-02T13:00:00.832Z,2.81
2024-02-02T13:01:03.887Z,2.56
2024-02-02T13:02:08.158Z,3.19
2024-02-02T13:03:11.311Z,3.12
2024-02-02T13:04:14.273Z,2.56
2024-02-02T13:05:17.967Z,3.25
2024-02-02T13:06:21.370Z,1.37
2024-02-02T13:07:24.777Z,3.69
2024-02-02T13:08:30.762Z,3.25
2024-02-02T13:09:33.706Z,3.56
2024-02-02T13:10:38.266Z,4.81
2024-02-02T13:11:42.739Z,3.69
2024-02-02T13:12:46.684Z,3.37
2024-02-02T13:13:49.712Z,6.31
2024-02-02T13:14:52.676Z,3.81
2024-02-02T13:15:55.704Z,3.75
2024-02-02T13:17:08.341Z,3.44
2024-02-02T13:18:12.663Z,5.19
2024-02-02T13:19:31.079Z,3.81
2024-02-02T13:20:34.088Z,5.62
2024-02-02T13:21:37.964Z,5.31
2024-02-02T13:22:40.856Z,4.56
2024-02-02T13:23:43.852Z,5.06
2024-02-02T13:24:48.173Z,5.12
2024-02-02T13:25:55.196Z,2.81
2024-02-02T13:27:04.943Z,4.12
2024-02-02T13:28:16.780Z,3.37
2024-02-02T13:29:26.255Z,3.37
2024-02-02T13:30:30.800Z,6.69
2024-02-02T13:31:33.740Z,5.50
2024-02-02T13:32:37.721Z,5.06
2024-02-02T13:33:42.139Z,4.81
2024-02-02T13:34:45.153Z,4.25
2024-02-02T13:35:48.513Z,6.06
2024-02-02T13:36:51.538Z,7.50
2024-02-02T13:37:54.432Z,7.69
2024-02-02T13:38:57.862Z,5.25
2024-02-02T13:40:00.928Z,5.81
2024-02-02T13:41:03.841Z,4.12
2024-02-02T13:42:07.010Z,6.87
2024-02-02T13:43:12.993Z,5.12
2024-02-02T13:44:17.314Z,6.56
2024-02-02T13:45:20.296Z,4.50
2024-02-02T13:46:23.314Z,6.12
2024-02-02T13:47:27.849Z,5.50
2024-02-02T13:48:37.199Z,5.06
2024-02-02T13:49:40.168Z,5.69
2024-02-02T13:50:43.716Z,7.44
2024-02-02T13:51:46.761Z,5.94
2024-02-02T13:52:50.263Z,7.25
2024-02-02T13:53:53.601Z,7.87
2024-02-02T13:54:56.652Z,6.69
2024-02-02T13:56:01.007Z,6.31
2024-02-02T13:57:04.054Z,6.62
2024-02-02T13:58:06.981Z,6.75
2024-02-02T13:59:11.308Z,7.94
2024-02-02T14:00:15.281Z,7.25
2024-02-02T14:01:19.319Z,6.69
2024-02-02T14:02:22.485Z,6.69
2024-02-02T14:03:25.493Z,3.69
2024-02-02T14:04:28.468Z,7.12
2024-02-02T14:05:31.526Z,6.62
2024-02-02T14:06:34.536Z,5.69
2024-02-02T14:07:37.541Z,5.19
2024-02-02T14:08:41.965Z,6.62
2024-02-02T14:09:45.285Z,4.75